Bjorko, Sweden

4:02 PM CET on February 20, 2017 (GMT +0100)
Bohus-Björkö | | Change Station

Elev 60 ft 57.73 °N, 11.68 °E | Updated 4 seconds ago

Rain
Rain
39.9 °F
Feels Like 33 °F
N
12.5
Wind Variable Wind from WSW
Gusts 19.3 mph

Today
High -- | Low -- °F
--% Chance of Precip.
Yesterday
High -- | Low -- °F
Precip. -- in
Pressure 29.27 in
Visibility 3.7 miles
Clouds Overcast 300 ft
Windchill 33 °F
Dew Point 39 °F
Humidity 98%
Rainfall 0.21 in
Snow Depth Not available.
7:30 AM 5:24 PM
Waning Crescent, 33% visible
METAR ESGG 201450Z 24014KT 6000 -RA OVC003 05/05 Q0991 R21/29//95
Pressure 29.27 in
Visibility 3.7 miles
Clouds Overcast 300 ft
Windchill 33 °F
Dew Point 39 °F
Humidity 98%
Rainfall 0.21 in
Snow Depth Not available.
7:30 AM 5:24 PM
Waning Crescent, 33% visible
METAR ESGG 201450Z 24014KT 6000 -RA OVC003 05/05 Q0991 R21/29//95

Get Your Daily Forecast Email!

Thanks for signing up!

Be on the lookout for a verification email in your inbox.

You'll start receiving the daily forecast at 8 AM.

×

10-Day Weather Forecast

×

Almanac

Astronomy

Feb. 20, 2017 Rise Set
Actual Time
Civil Twilight
Nautical Twilight
Astronomical Twilight
Moon
Length of Visible Light
Length of Day
Tomorrow will be .
, % of the Moon is Illuminated

Today's Extremes

Country Highs Country Lows

Community

WunderPhotos

Upload Photos

1,962,540 photos uploaded!

WunderBlog® & News

Nearby

Air Quality

  Air Quality AQ Index Pollutant
Not available.

Snow Depth

Station Depth Elevation

Earthquake Activity

City Distance Mag. Time & Date
Minimum magnitude displayed is 2.5.

Coastal Water Temperatures

Place Temperature

Stations

Nearby Weather Stations

Station Location Temp. Windchill Dew Point Humidity Wind Precip. Elev Updated Type